createdAt,value
2023-09-12T00:00:07.817Z,99331.56
2023-09-12T00:02:34.733Z,99327.94
2023-09-12T00:05:01.407Z,99317.91
2023-09-12T00:07:28.080Z,99309.47
2023-09-12T00:09:54.733Z,99310.91
2023-09-12T00:12:25.026Z,99315.84
2023-09-12T00:14:51.539Z,99305.13
2023-09-12T00:17:18.271Z,99300.84
2023-09-12T00:19:44.952Z,99290.84
2023-09-12T00:22:11.691Z,99282.25
2023-09-12T00:24:39.337Z,99279.31
2023-09-12T00:27:07.008Z,99272.22
2023-09-12T00:29:33.788Z,99273.00
2023-09-12T00:32:00.469Z,99272.28
2023-09-12T00:34:27.155Z,99273.75
2023-09-12T00:36:53.890Z,99278.03
2023-09-12T00:39:20.647Z,99276.53
2023-09-12T00:41:47.221Z,99267.88
2023-09-12T00:44:13.849Z,99267.16
2023-09-12T00:46:41.479Z,99267.91
2023-09-12T00:49:09.076Z,99276.44
2023-09-12T00:51:36.603Z,99281.97
2023-09-12T00:54:03.530Z,99273.22
2023-09-12T00:56:30.218Z,99270.31
2023-09-12T00:58:57.333Z,99277.41
2023-09-12T01:04:06.494Z,99278.84
2023-09-12T01:06:35.303Z,99273.16
2023-09-12T01:09:02.192Z,99279.72
2023-09-12T01:11:29.583Z,99290.47
2023-09-12T01:13:56.171Z,99286.88
2023-09-12T01:16:22.800Z,99283.88
2023-09-12T01:18:50.058Z,99280.91
2023-09-12T01:21:45.395Z,99285.13
2023-09-12T01:24:20.714Z,99283.81
2023-09-12T01:26:52.936Z,99281.75
2023-09-12T01:29:22.317Z,99286.00
2023-09-12T01:31:51.977Z,99289.50
2023-09-12T01:34:20.190Z,99287.31
2023-09-12T01:36:46.913Z,99280.13
2023-09-12T01:39:13.552Z,99278.06
2023-09-12T01:41:43.491Z,99282.22
2023-09-12T01:44:11.527Z,99274.84
2023-09-12T01:46:38.981Z,99282.72
2023-09-12T01:49:07.100Z,99277.59
2023-09-12T01:51:34.737Z,99285.69
2023-09-12T01:54:02.012Z,99283.47
2023-09-12T01:56:29.324Z,99281.91
2023-09-12T01:58:55.928Z,99288.38
2023-09-12T02:01:22.509Z,99288.97
2023-09-12T02:03:49.135Z,99283.88
2023-09-12T02:06:15.967Z,99299.56
2023-09-12T02:08:42.917Z,99294.44
2023-09-12T02:11:09.609Z,99282.47
2023-09-12T02:13:36.206Z,99279.72
2023-09-12T02:16:04.647Z,99289.78
2023-09-12T02:18:31.826Z,99291.88
2023-09-12T02:21:01.227Z,99286.56
2023-09-12T02:23:27.864Z,99288.53
2023-09-12T02:25:54.494Z,99288.50
2023-09-12T02:28:21.105Z,99294.91
2023-09-12T02:30:47.730Z,99287.88
2023-09-12T02:33:14.351Z,99295.88
2023-09-12T02:35:41.058Z,99302.09
2023-09-12T02:38:08.387Z,99302.56
2023-09-12T02:40:34.915Z,99301.84
2023-09-12T02:43:01.662Z,99304.44
2023-09-12T02:45:28.343Z,99301.63
2023-09-12T02:47:54.979Z,99292.41
2023-09-12T02:50:21.710Z,99290.34
2023-09-12T02:52:48.385Z,99290.41
2023-09-12T02:55:15.055Z,99287.69
2023-09-12T02:57:41.808Z,99290.31
2023-09-12T03:00:10.262Z,99287.22
2023-09-12T03:02:37.050Z,99282.91
2023-09-12T03:05:04.014Z,99286.81
2023-09-12T03:07:31.485Z,99287.84
2023-09-12T03:09:58.096Z,99284.25
2023-09-12T03:12:24.707Z,99290.03
2023-09-12T03:14:51.264Z,99286.56
2023-09-12T03:17:17.887Z,99282.00
2023-09-12T03:19:44.650Z,99276.41
2023-09-12T03:22:11.272Z,99279.84
2023-09-12T03:24:37.893Z,99283.38
2023-09-12T03:27:04.889Z,99277.69
2023-09-12T03:29:32.504Z,99279.50
2023-09-12T03:31:59.104Z,99291.41
2023-09-12T03:34:25.973Z,99283.22
2023-09-12T03:36:52.549Z,99278.69
2023-09-12T03:39:19.123Z,99279.22
2023-09-12T03:41:45.706Z,99278.84
2023-09-12T03:44:12.306Z,99285.91
2023-09-12T03:46:39.026Z,99283.69
2023-09-12T03:49:05.716Z,99292.50
2023-09-12T03:51:32.628Z,99290.44
2023-09-12T03:53:59.226Z,99280.38
2023-09-12T03:56:25.933Z,99282.84
2023-09-12T03:58:52.539Z,99287.25
2023-09-12T04:01:19.261Z,99283.19
2023-09-12T04:06:15.295Z,99296.31
2023-09-12T04:08:42.286Z,99302.63
2023-09-12T04:11:09.040Z,99294.31
2023-09-12T04:13:35.562Z,99295.81
2023-09-12T04:16:02.353Z,99296.38
2023-09-12T04:18:29.299Z,99296.84
2023-09-12T04:20:59.103Z,99288.47
2023-09-12T04:23:26.592Z,99282.78
2023-09-12T04:25:53.147Z,99284.31
2023-09-12T04:28:19.805Z,99295.50
2023-09-12T04:30:47.455Z,99292.84
2023-09-12T04:33:14.272Z,99295.91
2023-09-12T04:35:40.907Z,99288.94
2023-09-12T04:38:07.598Z,99295.91
2023-09-12T04:40:34.193Z,99289.84
2023-09-12T04:43:00.829Z,99299.63
2023-09-12T04:45:27.436Z,99291.28
2023-09-12T04:47:54.060Z,99287.66
2023-09-12T04:50:20.619Z,99285.97
2023-09-12T04:52:47.263Z,99286.25
2023-09-12T04:55:13.829Z,99297.88
2023-09-12T04:57:42.319Z,99302.69
2023-09-12T05:00:12.130Z,99298.31
2023-09-12T05:02:39.019Z,99318.88
2023-09-12T05:05:06.146Z,99303.56
2023-09-12T05:07:34.922Z,99307.66
2023-09-12T05:10:01.658Z,99306.19
2023-09-12T05:12:28.243Z,99305.72
2023-09-12T05:14:54.838Z,99313.69
2023-09-12T05:17:21.374Z,99313.25
2023-09-12T05:19:47.916Z,99314.72
2023-09-12T05:22:14.531Z,99317.06
2023-09-12T05:24:41.113Z,99320.66
2023-09-12T05:27:07.898Z,99317.31
2023-09-12T05:29:34.536Z,99327.91
2023-09-12T05:32:01.275Z,99325.16
2023-09-12T05:34:27.849Z,99325.84
2023-09-12T05:36:54.392Z,99334.34
2023-09-12T05:39:21.174Z,99337.66
2023-09-12T05:41:47.798Z,99346.00
2023-09-12T05:44:18.821Z,99340.97
2023-09-12T05:46:49.368Z,99345.34
2023-09-12T05:49:16.203Z,99343.41
2023-09-12T05:51:43.760Z,99348.19
2023-09-12T05:54:11.390Z,99357.91
2023-09-12T05:56:38.032Z,99358.19
2023-09-12T05:59:04.586Z,99360.03
2023-09-12T06:01:31.166Z,99355.47
2023-09-12T06:03:58.170Z,99362.78
2023-09-12T06:06:25.033Z,99360.84
2023-09-12T06:08:51.626Z,99360.75
2023-09-12T06:11:18.302Z,99370.00
2023-09-12T06:13:44.863Z,99377.00
2023-09-12T06:16:11.427Z,99385.44
2023-09-12T06:18:38.097Z,99387.31
2023-09-12T06:21:05.761Z,99388.97
2023-09-12T06:23:32.623Z,99380.22
2023-09-12T06:25:59.832Z,99380.59
2023-09-12T06:28:31.710Z,99379.94
2023-09-12T06:30:59.839Z,99382.16
2023-09-12T06:33:27.665Z,99387.88
2023-09-12T06:35:54.404Z,99399.72
2023-09-12T06:38:22.819Z,99402.16
2023-09-12T06:40:49.635Z,99400.50
2023-09-12T06:43:16.295Z,99404.66
2023-09-12T06:45:42.859Z,99404.28
2023-09-12T06:48:09.648Z,99401.53
2023-09-12T06:50:38.696Z,99403.13
2023-09-12T06:53:08.262Z,99397.13
2023-09-12T06:55:35.319Z,99397.75
2023-09-12T06:58:02.142Z,99400.75
2023-09-12T07:00:28.798Z,99398.53
2023-09-12T07:02:55.706Z,99405.69
2023-09-12T07:05:22.473Z,99395.28
2023-09-12T07:07:49.348Z,99398.72
2023-09-12T07:10:23.462Z,99396.84
2023-09-12T07:12:51.934Z,99391.19
2023-09-12T07:15:18.782Z,99393.19
2023-09-12T07:17:45.458Z,99401.09
2023-09-12T07:20:12.881Z,99408.28
2023-09-12T07:22:41.219Z,99401.25
2023-09-12T07:25:08.418Z,99409.91
2023-09-12T07:27:34.983Z,99412.66
2023-09-12T07:30:01.607Z,99419.72
2023-09-12T07:32:28.832Z,99419.72
2023-09-12T07:34:55.622Z,99415.78
2023-09-12T07:37:22.221Z,99415.94
2023-09-12T07:39:48.813Z,99413.47
2023-09-12T07:42:15.414Z,99415.78
2023-09-12T07:44:42.082Z,99419.88
2023-09-12T07:47:08.897Z,99420.59
2023-09-12T07:49:35.424Z,99422.25
2023-09-12T07:52:02.112Z,99426.56
2023-09-12T07:54:29.285Z,99430.06
2023-09-12T07:56:55.855Z,99421.75
2023-09-12T07:59:23.298Z,99423.97
2023-09-12T08:01:50.034Z,99440.38
2023-09-12T08:04:16.651Z,99442.38
2023-09-12T08:06:57.022Z,99445.22
2023-09-12T08:09:24.797Z,99440.44
2023-09-12T08:11:51.475Z,99446.94
2023-09-12T08:14:18.224Z,99444.16
2023-09-12T08:16:46.926Z,99434.22
2023-09-12T08:19:15.357Z,99434.81
2023-09-12T08:21:43.851Z,99442.75
2023-09-12T08:24:10.402Z,99443.53
2023-09-12T08:26:37.430Z,99445.47
2023-09-12T08:29:03.991Z,99446.84
2023-09-12T08:31:30.602Z,99435.41
2023-09-12T08:33:57.414Z,99446.75
2023-09-12T08:36:24.011Z,99446.03
2023-09-12T08:38:50.555Z,99442.63
2023-09-12T08:41:17.208Z,99447.13
2023-09-12T08:43:44.711Z,99452.91
2023-09-12T08:46:12.477Z,99453.03
2023-09-12T08:48:39.821Z,99453.16
2023-09-12T08:51:08.598Z,99451.19
2023-09-12T08:53:37.233Z,99444.81
2023-09-12T08:56:05.075Z,99446.28
2023-09-12T08:58:36.463Z,99448.50
2023-09-12T09:01:04.491Z,99442.84
2023-09-12T09:03:31.848Z,99439.31
2023-09-12T09:05:59.613Z,99433.63
2023-09-12T09:08:27.577Z,99434.31
2023-09-12T09:11:03.723Z,99440.63
2023-09-12T09:13:31.002Z,99434.28
2023-09-12T09:16:14.051Z,99435.06
2023-09-12T09:18:57.251Z,99430.84
2023-09-12T09:21:26.396Z,99440.13
2023-09-12T09:23:56.511Z,99429.44
2023-09-12T09:26:23.312Z,99425.19
2023-09-12T09:29:08.008Z,99423.06
2023-09-12T09:31:35.364Z,99424.53
2023-09-12T09:34:05.271Z,99414.56
2023-09-12T09:36:33.000Z,99418.84
2023-09-12T09:39:04.681Z,99426.00
2023-09-12T09:41:32.020Z,99425.31
2023-09-12T09:43:59.180Z,99417.47
2023-09-12T09:46:25.897Z,99412.50
2023-09-12T09:48:53.107Z,99411.09
2023-09-12T09:51:20.135Z,99408.22
2023-09-12T09:53:46.724Z,99411.09
2023-09-12T09:56:15.188Z,99419.66
2023-09-12T09:58:57.854Z,99421.81
2023-09-12T10:01:29.137Z,99413.94
2023-09-12T10:04:00.118Z,99411.78
2023-09-12T10:06:28.245Z,99418.22
2023-09-12T10:08:55.871Z,99413.91
2023-09-12T10:11:25.351Z,99411.75
2023-09-12T10:13:56.614Z,99423.91
2023-09-12T10:16:47.301Z,99413.91
2023-09-12T10:19:16.690Z,99410.31
2023-09-12T10:22:10.457Z,99408.16
2023-09-12T10:24:38.196Z,99406.69
2023-09-12T10:27:06.498Z,99405.97
2023-09-12T10:29:33.535Z,99410.25
2023-09-12T10:32:01.162Z,99418.13
2023-09-12T10:34:29.679Z,99409.53
2023-09-12T10:36:59.008Z,99413.78
2023-09-12T10:39:28.411Z,99405.16
2023-09-12T10:41:55.694Z,99409.38
2023-09-12T10:44:22.879Z,99405.84
2023-09-12T10:46:50.435Z,99396.59
2023-09-12T10:49:18.130Z,99399.38
2023-09-12T10:51:46.603Z,99394.97
2023-09-12T10:54:24.031Z,99387.19
2023-09-12T10:57:04.367Z,99396.50
2023-09-12T10:59:32.815Z,99394.19
2023-09-12T11:02:30.639Z,99394.84
2023-09-12T11:04:58.053Z,99381.88
2023-09-12T11:07:44.790Z,99389.72
2023-09-12T11:10:16.038Z,99387.50
2023-09-12T11:12:44.152Z,99381.78
2023-09-12T11:15:11.729Z,99380.41
2023-09-12T11:17:45.123Z,99379.47
2023-09-12T11:20:12.780Z,99382.16
2023-09-12T11:22:41.186Z,99379.31
2023-09-12T11:25:27.658Z,99380.84
2023-09-12T11:27:57.217Z,99381.59
2023-09-12T11:30:36.044Z,99383.03
2023-09-12T11:33:07.046Z,99384.44
2023-09-12T11:35:38.169Z,99380.03
2023-09-12T11:38:04.925Z,99375.03
2023-09-12T11:40:34.411Z,99370.75
2023-09-12T11:43:05.682Z,99369.16
2023-09-12T11:45:33.806Z,99371.22
2023-09-12T11:48:00.501Z,99370.47
2023-09-12T11:50:34.502Z,99372.53
2023-09-12T11:53:01.016Z,99373.94
2023-09-12T11:55:27.561Z,99366.72
2023-09-12T11:57:54.964Z,99362.88
2023-09-12T12:00:21.743Z,99358.28
2023-09-12T12:02:48.444Z,99360.78
2023-09-12T12:05:15.306Z,99359.16
2023-09-12T12:07:43.849Z,99356.19
2023-09-12T12:10:11.121Z,99361.75
2023-09-12T12:12:37.770Z,99353.31
2023-09-12T12:15:04.703Z,99350.94
2023-09-12T12:17:31.278Z,99347.22
2023-09-12T12:19:58.323Z,99347.13
2023-09-12T12:22:24.920Z,99351.38
2023-09-12T12:24:52.824Z,99339.75
2023-09-12T12:27:19.598Z,99343.34
2023-09-12T12:29:46.824Z,99336.13
2023-09-12T12:32:16.978Z,99337.47
2023-09-12T12:35:34.683Z,99339.56
2023-09-12T12:37:35.952Z,99343.13
2023-09-12T12:40:04.925Z,99334.25
2023-09-12T12:42:48.642Z,99337.94
2023-09-12T12:45:22.276Z,99326.66
2023-09-12T12:47:56.794Z,99330.78
2023-09-12T12:50:23.466Z,99330.00
2023-09-12T12:52:50.266Z,99325.22
2023-09-12T12:55:18.200Z,99326.75
2023-09-12T12:57:45.452Z,99333.13
2023-09-12T13:00:14.795Z,99334.25
2023-09-12T13:02:43.004Z,99333.41
2023-09-12T13:05:25.394Z,99330.00
2023-09-12T13:07:52.405Z,99328.22
2023-09-12T13:10:20.074Z,99318.03
2023-09-12T13:12:47.483Z,99316.63
2023-09-12T13:15:15.106Z,99324.53
2023-09-12T13:17:42.637Z,99314.81
2023-09-12T13:20:10.415Z,99306.34
2023-09-12T13:22:37.494Z,99311.47
2023-09-12T13:25:04.337Z,99314.63
2023-09-12T13:27:31.043Z,99306.81
2023-09-12T13:30:00.262Z,99306.47
2023-09-12T13:32:27.283Z,99294.13
2023-09-12T13:34:54.287Z,99294.25
2023-09-12T13:37:22.344Z,99302.25
2023-09-12T13:39:50.695Z,99288.31
2023-09-12T13:42:22.038Z,99289.03
2023-09-12T13:44:49.636Z,99289.75
2023-09-12T13:47:23.455Z,99289.69
2023-09-12T13:49:54.535Z,99284.66
2023-09-12T13:52:22.323Z,99281.75
2023-09-12T13:54:49.350Z,99284.63
2023-09-12T13:57:17.657Z,99279.22
2023-09-12T13:59:46.176Z,99273.38
2023-09-12T14:02:13.810Z,99264.97
2023-09-12T14:04:42.026Z,99269.75
2023-09-12T14:07:09.597Z,99264.28
2023-09-12T14:09:36.807Z,99271.22
2023-09-12T14:12:05.629Z,99260.50
2023-09-12T14:14:33.936Z,99264.72
2023-09-12T14:17:00.717Z,99260.31
2023-09-12T14:19:30.327Z,99266.25
2023-09-12T14:21:57.491Z,99260.50
2023-09-12T14:24:25.808Z,99253.56
2023-09-12T14:26:53.169Z,99248.81
2023-09-12T14:29:20.826Z,99242.47
2023-09-12T14:31:56.664Z,99245.13
2023-09-12T14:34:23.391Z,99245.09
2023-09-12T14:36:50.160Z,99259.41
2023-09-12T14:39:16.770Z,99250.84
2023-09-12T14:41:45.142Z,99264.03
2023-09-12T14:44:11.668Z,99272.72
2023-09-12T14:46:38.273Z,99265.81
2023-09-12T14:49:05.144Z,99266.78
2023-09-12T14:51:34.508Z,99263.78
2023-09-12T14:54:02.918Z,99269.38
2023-09-12T14:56:29.883Z,99267.09
2023-09-12T14:58:56.780Z,99276.63
2023-09-12T15:01:25.017Z,99271.09
2023-09-12T15:03:52.872Z,99276.34
2023-09-12T15:06:22.262Z,99277.16
2023-09-12T15:08:49.944Z,99289.34
2023-09-12T15:11:16.587Z,99296.03
2023-09-12T15:13:43.255Z,99299.81
2023-09-12T15:16:10.181Z,99286.53
2023-09-12T15:18:39.198Z,99290.38
2023-09-12T15:21:06.180Z,99295.75
2023-09-12T15:23:33.354Z,99306.63
2023-09-12T15:26:00.016Z,99312.47
2023-09-12T15:28:26.679Z,99314.66
2023-09-12T15:30:53.394Z,99318.91
2023-09-12T15:33:21.232Z,99324.13
2023-09-12T15:35:47.850Z,99335.72
2023-09-12T15:38:14.384Z,99340.88
2023-09-12T15:40:41.362Z,99335.41
2023-09-12T15:43:19.350Z,99339.03
2023-09-12T15:45:52.358Z,99332.56
2023-09-12T15:48:19.517Z,99337.13
2023-09-12T15:50:46.400Z,99334.28
2023-09-12T15:53:13.040Z,99318.59
2023-09-12T15:55:39.657Z,99315.72
2023-09-12T15:58:06.319Z,99290.66
2023-09-12T16:00:33.372Z,99276.31
2023-09-12T16:03:00.346Z,99277.72
2023-09-12T16:05:26.964Z,99286.47
2023-09-12T16:07:53.573Z,99298.75
2023-09-12T16:10:20.703Z,99302.34
2023-09-12T16:12:47.635Z,99304.53
2023-09-12T16:15:15.869Z,99334.63
2023-09-12T16:17:44.509Z,99340.34
2023-09-12T16:20:14.571Z,99347.63
2023-09-12T16:22:41.876Z,99334.81
2023-09-12T16:25:10.304Z,99332.69
2023-09-12T16:27:37.246Z,99332.69
2023-09-12T16:30:08.959Z,99336.41
2023-09-12T16:32:38.460Z,99346.63
2023-09-12T16:35:05.840Z,99348.09
2023-09-12T16:37:33.674Z,99347.47
2023-09-12T16:40:02.039Z,99365.31
2023-09-12T16:42:31.697Z,99365.69
2023-09-12T16:45:00.921Z,99369.06
2023-09-12T16:47:28.756Z,99362.78
2023-09-12T16:49:57.353Z,99373.63
2023-09-12T16:52:24.033Z,99367.31
2023-09-12T16:54:50.834Z,99378.72
2023-09-12T16:57:17.503Z,99382.25
2023-09-12T16:59:45.715Z,99382.91
2023-09-12T17:02:13.478Z,99380.78
2023-09-12T17:04:45.047Z,99379.41
2023-09-12T17:07:13.048Z,99383.72
2023-09-12T17:09:40.333Z,99394.97
2023-09-12T17:12:08.171Z,99402.00
2023-09-12T17:14:34.943Z,99404.09
2023-09-12T17:17:02.335Z,99402.06
2023-09-12T17:19:29.452Z,99422.13
2023-09-12T17:21:56.063Z,99424.81
2023-09-12T17:24:22.740Z,99430.78
2023-09-12T17:26:49.497Z,99450.16
2023-09-12T17:29:16.155Z,99458.06
2023-09-12T17:31:42.980Z,99446.47
2023-09-12T17:34:09.745Z,99444.19
2023-09-12T17:36:36.482Z,99446.63
2023-09-12T17:39:03.570Z,99453.34
2023-09-12T17:41:30.181Z,99454.06
2023-09-12T17:43:58.109Z,99454.81
2023-09-12T17:46:25.201Z,99459.94
2023-09-12T17:48:51.932Z,99465.81
2023-09-12T17:51:18.557Z,99470.66
2023-09-12T17:53:45.578Z,99478.13
2023-09-12T17:56:12.395Z,99468.53
2023-09-12T17:58:39.268Z,99482.88
2023-09-12T18:01:06.161Z,99486.13
2023-09-12T18:03:33.128Z,99477.38
2023-09-12T18:06:00.363Z,99480.38
2023-09-12T18:08:27.259Z,99477.69
2023-09-12T18:10:54.126Z,99485.28
2023-09-12T18:13:20.771Z,99494.22
2023-09-12T18:15:47.655Z,99500.84
2023-09-12T18:18:14.400Z,99512.34
2023-09-12T18:20:41.683Z,99516.06
2023-09-12T18:23:08.302Z,99546.06
2023-09-12T18:25:34.871Z,99554.63
2023-09-12T18:28:01.509Z,99572.75
2023-09-12T18:30:28.343Z,99569.16
2023-09-12T18:32:57.883Z,99571.38
2023-09-12T18:35:26.131Z,99560.81
2023-09-12T18:37:53.992Z,99539.84
2023-09-12T18:40:21.328Z,99505.63
2023-09-12T18:42:48.294Z,99499.56
2023-09-12T18:45:15.351Z,99529.25
2023-09-12T18:47:42.072Z,99545.47
2023-09-12T18:50:09.225Z,99549.50
2023-09-12T18:52:51.790Z,99544.25
2023-09-12T18:55:20.871Z,99530.06
2023-09-12T18:57:47.548Z,99528.41
2023-09-12T19:00:17.397Z,99531.34
2023-09-12T19:02:44.413Z,99541.22
2023-09-12T19:05:11.414Z,99537.66
2023-09-12T19:07:38.276Z,99540.91
2023-09-12T19:10:05.261Z,99542.53
2023-09-12T19:12:31.944Z,99541.34
2023-09-12T19:14:59.216Z,99543.97
2023-09-12T19:17:25.825Z,99518.69
2023-09-12T19:19:52.389Z,99508.09
2023-09-12T19:22:19.054Z,99506.88
2023-09-12T19:24:45.675Z,99528.25
2023-09-12T19:27:12.264Z,99550.84
2023-09-12T19:29:50.303Z,99551.94
2023-09-12T19:32:16.946Z,99548.66
2023-09-12T19:34:44.679Z,99558.84
2023-09-12T19:37:12.749Z,99555.69
2023-09-12T19:39:39.387Z,99565.28
2023-09-12T19:42:06.888Z,99572.88
2023-09-12T19:44:33.891Z,99582.41
2023-09-12T19:47:00.661Z,99588.34
2023-09-12T19:49:29.283Z,99599.81
2023-09-12T19:51:58.419Z,99619.72
2023-09-12T19:54:25.077Z,99621.00
2023-09-12T19:56:51.617Z,99623.84
2023-09-12T19:59:18.264Z,99630.16
2023-09-12T20:01:44.850Z,99621.59
2023-09-12T20:04:11.513Z,99627.03
2023-09-12T20:06:38.380Z,99624.94
2023-09-12T20:09:07.392Z,99629.22
2023-09-12T20:11:34.107Z,99616.31
2023-09-12T20:14:00.936Z,99614.75
2023-09-12T20:16:27.610Z,99607.78
2023-09-12T20:18:54.316Z,99598.44
2023-09-12T20:21:21.062Z,99602.91
2023-09-12T20:23:48.239Z,99611.00
2023-09-12T20:26:14.839Z,99614.06
2023-09-12T20:28:41.651Z,99625.06
2023-09-12T20:31:08.464Z,99621.00
2023-09-12T20:33:35.270Z,99613.81
2023-09-12T20:36:02.146Z,99624.69
2023-09-12T20:38:28.769Z,99636.03
2023-09-12T20:40:55.322Z,99628.13
2023-09-12T20:43:21.908Z,99626.78
2023-09-12T20:45:53.537Z,99613.50
2023-09-12T20:48:20.830Z,99602.25
2023-09-12T20:50:47.417Z,99616.22
2023-09-12T20:53:17.989Z,99600.66
2023-09-12T20:55:45.132Z,99609.91
2023-09-12T20:58:13.285Z,99608.97
2023-09-12T21:00:40.956Z,99616.09
2023-09-12T21:03:07.821Z,99624.34
2023-09-12T21:05:34.466Z,99615.59
2023-09-12T21:08:02.044Z,99610.75
2023-09-12T21:10:28.669Z,99609.50
2023-09-12T21:12:55.407Z,99617.63
2023-09-12T21:15:24.337Z,99615.69
2023-09-12T21:17:51.179Z,99622.75
2023-09-12T21:20:17.884Z,99615.09
2023-09-12T21:22:44.647Z,99613.06
2023-09-12T21:25:11.219Z,99611.13
2023-09-12T21:27:38.160Z,99615.72
2023-09-12T21:30:08.383Z,99601.75
2023-09-12T21:32:35.157Z,99600.78
2023-09-12T21:35:16.602Z,99598.03
2023-09-12T21:37:46.838Z,99596.97
2023-09-12T21:40:15.872Z,99595.19
2023-09-12T21:42:43.534Z,99600.13
2023-09-12T21:45:13.746Z,99614.69
2023-09-12T21:47:41.056Z,99617.91
2023-09-12T21:50:08.147Z,99622.25
2023-09-12T21:52:35.272Z,99625.91
2023-09-12T21:55:02.437Z,99637.38
2023-09-12T21:57:29.115Z,99647.31
2023-09-12T21:59:56.811Z,99665.38
2023-09-12T22:02:23.664Z,99669.06
2023-09-12T22:04:50.305Z,99675.34
2023-09-12T22:07:16.963Z,99683.34
2023-09-12T22:09:43.787Z,99678.72
2023-09-12T22:12:10.436Z,99671.81
2023-09-12T22:14:37.029Z,99683.38
2023-09-12T22:17:04.166Z,99678.75
2023-09-12T22:19:31.990Z,99672.69
2023-09-12T22:21:59.737Z,99674.28
2023-09-12T22:24:26.346Z,99674.66
2023-09-12T22:26:52.889Z,99682.03
2023-09-12T22:29:21.508Z,99678.78
2023-09-12T22:31:48.351Z,99665.44
2023-09-12T22:34:15.165Z,99663.41
2023-09-12T22:36:41.712Z,99667.91
2023-09-12T22:39:08.544Z,99666.75
2023-09-12T22:41:35.126Z,99662.47
2023-09-12T22:44:02.895Z,99660.03
2023-09-12T22:46:29.583Z,99657.69
2023-09-12T22:48:56.493Z,99660.63
2023-09-12T22:51:23.103Z,99661.69
2023-09-12T22:53:49.740Z,99663.84
2023-09-12T22:56:16.308Z,99659.91
2023-09-12T22:58:42.834Z,99659.75
2023-09-12T23:01:10.338Z,99668.91
2023-09-12T23:03:37.098Z,99663.59
2023-09-12T23:06:03.945Z,99675.84
2023-09-12T23:08:30.648Z,99673.16
2023-09-12T23:10:57.190Z,99673.25
2023-09-12T23:13:23.769Z,99673.63
2023-09-12T23:15:50.441Z,99669.97
2023-09-12T23:18:17.345Z,99680.75
2023-09-12T23:20:46.273Z,99683.63
2023-09-12T23:23:12.899Z,99681.69
2023-09-12T23:25:39.778Z,99686.81
2023-09-12T23:28:07.855Z,99680.47
2023-09-12T23:30:34.649Z,99676.59
2023-09-12T23:33:01.463Z,99682.81
2023-09-12T23:35:28.472Z,99678.97
2023-09-12T23:37:55.089Z,99679.84
2023-09-12T23:40:22.360Z,99681.41
2023-09-12T23:42:49.078Z,99683.81
2023-09-12T23:45:15.871Z,99686.09
2023-09-12T23:47:42.586Z,99686.16
2023-09-12T23:50:09.800Z,99694.16
2023-09-12T23:52:36.442Z,99682.91
2023-09-12T23:55:03.189Z,99680.25
2023-09-12T23:57:29.742Z,99681.75
2023-09-12T23:59:56.559Z,99672.63
